createdAt,value
2018-01-24T00:01:34.173Z,7.40
2018-01-24T00:04:02.528Z,8.98
2018-01-24T00:06:30.908Z,6.45
2018-01-24T00:08:59.272Z,7.45
2018-01-24T00:11:28.440Z,6.78
2018-01-24T00:13:57.561Z,6.00
2018-01-24T00:16:26.680Z,6.62
2018-01-24T00:18:55.078Z,7.00
2018-01-24T00:21:23.441Z,6.37
2018-01-24T00:23:51.848Z,5.80
2018-01-24T00:26:20.205Z,5.87
2018-01-24T00:28:48.564Z,6.00
2018-01-24T00:31:16.986Z,6.87
2018-01-24T00:36:38.224Z,6.43
2018-01-24T00:39:06.580Z,6.20
2018-01-24T00:41:34.933Z,6.18
2018-01-24T00:44:03.322Z,6.10
2018-01-24T00:46:31.676Z,6.20
2018-01-24T00:49:00.108Z,4.95
2018-01-24T00:51:28.465Z,5.68
2018-01-24T00:53:56.829Z,4.85
2018-01-24T00:56:25.208Z,4.72
2018-01-24T00:58:53.555Z,5.55
2018-01-24T01:01:22.717Z,5.43
2018-01-24T01:03:51.085Z,4.80
2018-01-24T01:06:19.445Z,4.82
2018-01-24T01:08:49.685Z,5.53
2018-01-24T01:12:15.327Z,6.37
2018-01-24T01:14:43.720Z,6.00
2018-01-24T01:17:12.078Z,4.65
2018-01-24T01:19:40.442Z,4.80
2018-01-24T01:22:08.829Z,5.28
2018-01-24T01:24:37.180Z,5.55
2018-01-24T01:27:05.584Z,5.00
2018-01-24T01:29:33.936Z,5.00
2018-01-24T01:32:02.365Z,5.32
2018-01-24T01:34:30.745Z,4.68
2018-01-24T01:36:59.106Z,5.03
2018-01-24T01:39:27.515Z,5.57
2018-01-24T01:41:56.628Z,4.95
2018-01-24T01:44:25.034Z,5.25
2018-01-24T01:46:53.420Z,4.35
2018-01-24T01:49:21.780Z,4.80
2018-01-24T01:51:50.461Z,5.40
2018-01-24T01:54:18.824Z,5.62
2018-01-24T01:56:47.184Z,4.37
2018-01-24T01:59:16.340Z,4.60
2018-01-24T02:01:44.698Z,4.62
2018-01-24T02:04:13.276Z,4.80
2018-01-24T02:06:41.626Z,4.70
2018-01-24T02:09:10.739Z,5.40
2018-01-24T02:11:39.116Z,5.70
2018-01-24T02:14:07.474Z,4.78
2018-01-24T02:16:36.801Z,4.62
2018-01-24T02:19:05.185Z,4.82
2018-01-24T02:21:33.537Z,4.80
2018-01-24T02:24:02.691Z,5.32
2018-01-24T02:26:31.456Z,5.75
2018-01-24T02:29:00.134Z,5.20
2018-01-24T02:31:28.510Z,4.85
2018-01-24T02:33:56.866Z,4.80
2018-01-24T02:36:26.009Z,5.47
2018-01-24T02:39:12.248Z,4.12
2018-01-24T02:41:41.369Z,4.12
2018-01-24T02:44:09.767Z,4.22
2018-01-24T02:46:38.148Z,4.72
2018-01-24T02:49:06.504Z,5.28
2018-01-24T02:51:34.882Z,4.40
2018-01-24T02:54:03.252Z,3.80
2018-01-24T02:56:31.745Z,4.70
2018-01-24T02:59:00.119Z,4.82
2018-01-24T03:01:28.473Z,4.37
2018-01-24T03:03:57.185Z,4.72
2018-01-24T03:06:25.583Z,4.65
2018-01-24T03:08:53.936Z,5.43
2018-01-24T03:11:22.344Z,4.05
2018-01-24T03:13:50.700Z,4.40
2018-01-24T03:16:19.110Z,4.68
2018-01-24T03:18:47.464Z,5.28
2018-01-24T03:21:15.819Z,4.60
2018-01-24T03:23:44.197Z,4.60
2018-01-24T03:26:12.556Z,4.25
2018-01-24T03:28:41.715Z,4.30
2018-01-24T03:31:10.080Z,4.82
2018-01-24T03:33:38.441Z,4.87
2018-01-24T03:36:06.821Z,4.32
2018-01-24T03:38:35.176Z,4.32
2018-01-24T03:41:03.622Z,4.20
2018-01-24T03:43:32.009Z,4.95
2018-01-24T03:46:00.368Z,4.47
2018-01-24T03:48:28.749Z,4.03
2018-01-24T03:50:57.112Z,4.55
2018-01-24T03:53:25.520Z,3.90
2018-01-24T03:55:53.880Z,3.78
2018-01-24T03:58:22.240Z,3.90
2018-01-24T04:00:50.617Z,3.85
2018-01-24T04:03:18.974Z,4.53
2018-01-24T04:05:47.390Z,3.72
2018-01-24T04:08:15.749Z,4.12
2018-01-24T04:10:44.110Z,3.62
2018-01-24T04:13:12.485Z,3.42
2018-01-24T04:15:40.836Z,3.40
2018-01-24T04:18:09.988Z,3.50
2018-01-24T04:20:38.345Z,3.62
2018-01-24T04:23:06.710Z,4.35
2018-01-24T04:25:35.091Z,3.72
2018-01-24T04:28:03.455Z,3.83
2018-01-24T04:30:32.782Z,2.72
2018-01-24T04:33:01.132Z,3.05
2018-01-24T04:35:30.255Z,2.83
2018-01-24T04:37:58.628Z,3.28
2018-01-24T04:40:26.979Z,2.95
2018-01-24T04:42:56.128Z,3.53
2018-01-24T04:45:24.501Z,2.42
2018-01-24T04:47:52.853Z,2.85
2018-01-24T04:50:21.241Z,2.80
2018-01-24T04:52:49.593Z,3.00
2018-01-24T04:55:18.748Z,2.50
2018-01-24T04:57:47.110Z,3.12
2018-01-24T05:00:15.474Z,2.12
2018-01-24T05:02:43.856Z,2.60
2018-01-24T05:05:12.227Z,3.22
2018-01-24T05:07:41.023Z,2.37
2018-01-24T05:10:09.393Z,2.15
2018-01-24T05:12:37.756Z,2.28
2018-01-24T05:15:06.908Z,2.65
2018-01-24T05:17:35.296Z,2.00
2018-01-24T05:20:03.738Z,2.50
2018-01-24T05:22:32.103Z,2.15
2018-01-24T05:25:00.461Z,2.17
2018-01-24T05:27:29.600Z,2.20
2018-01-24T05:29:57.948Z,2.60
2018-01-24T05:32:26.366Z,2.33
2018-01-24T05:34:54.724Z,2.55
2018-01-24T05:37:23.081Z,2.50
2018-01-24T05:39:51.456Z,2.33
2018-01-24T05:42:19.814Z,2.37
2018-01-24T05:44:48.997Z,2.87
2018-01-24T05:47:18.140Z,2.05
2018-01-24T05:49:46.493Z,2.20
2018-01-24T05:52:15.645Z,2.08
2018-01-24T05:54:44.001Z,3.00
2018-01-24T05:57:12.884Z,2.30
2018-01-24T05:59:41.926Z,1.87
2018-01-24T06:02:11.072Z,2.00
2018-01-24T06:04:39.468Z,1.80
2018-01-24T06:07:07.821Z,2.25
2018-01-24T06:09:36.615Z,2.40
2018-01-24T06:12:04.977Z,3.33
2018-01-24T06:14:34.097Z,2.25
2018-01-24T06:17:02.481Z,2.62
2018-01-24T06:19:30.837Z,1.92
2018-01-24T06:21:59.249Z,1.95
2018-01-24T06:24:27.604Z,2.50
2018-01-24T06:26:55.965Z,2.75
2018-01-24T06:29:25.121Z,1.80
2018-01-24T06:31:53.476Z,1.90
2018-01-24T06:34:22.040Z,1.95
2018-01-24T06:36:50.401Z,1.85
2018-01-24T06:39:18.752Z,1.50
2018-01-24T06:41:47.132Z,2.05
2018-01-24T06:44:14.780Z,1.40
2018-01-24T06:46:43.533Z,2.40
2018-01-24T06:49:11.888Z,2.22
2018-01-24T06:51:40.241Z,2.55
2018-01-24T06:54:08.681Z,2.30
2018-01-24T06:56:37.037Z,1.65
2018-01-24T06:59:05.629Z,2.15
2018-01-24T07:01:33.985Z,2.05
2018-01-24T07:04:02.328Z,2.28
2018-01-24T07:06:30.704Z,2.67
2018-01-24T07:08:59.056Z,2.58
2018-01-24T07:11:27.735Z,1.87
2018-01-24T07:14:14.060Z,2.92
2018-01-24T07:16:42.608Z,2.30
2018-01-24T07:19:10.964Z,2.40
2018-01-24T07:21:39.312Z,2.00
2018-01-24T07:24:07.690Z,1.62
2018-01-24T07:26:36.049Z,1.80
2018-01-24T07:29:04.719Z,1.60
2018-01-24T07:31:33.072Z,2.12
2018-01-24T07:34:01.426Z,1.37
2018-01-24T07:36:30.570Z,1.98
2018-01-24T07:38:58.969Z,1.42
2018-01-24T07:41:27.508Z,1.67
2018-01-24T07:43:55.861Z,1.42
2018-01-24T07:46:24.985Z,1.40
2018-01-24T07:48:53.373Z,1.40
2018-01-24T07:51:21.735Z,1.92
2018-01-24T07:53:50.141Z,1.58
2018-01-24T07:56:18.493Z,2.35
2018-01-24T07:58:46.858Z,1.70
2018-01-24T08:01:15.241Z,2.10
2018-01-24T08:03:43.604Z,2.10
2018-01-24T08:06:13.137Z,2.60
2018-01-24T08:08:41.505Z,1.77
2018-01-24T08:11:09.865Z,1.55
2018-01-24T08:13:39.021Z,1.67
2018-01-24T08:16:07.393Z,1.83
2018-01-24T08:18:35.812Z,1.90
2018-01-24T08:21:04.964Z,1.80
2018-01-24T08:23:33.331Z,2.03
2018-01-24T08:26:01.722Z,2.20
2018-01-24T08:28:30.097Z,2.42
2018-01-24T08:30:58.662Z,1.70
2018-01-24T08:33:27.026Z,2.17
2018-01-24T08:35:55.397Z,1.77
2018-01-24T08:38:23.793Z,1.67
2018-01-24T08:40:52.165Z,2.17
2018-01-24T08:43:20.562Z,1.80
2018-01-24T08:45:48.973Z,2.10
2018-01-24T08:48:17.330Z,2.00
2018-01-24T08:50:45.724Z,2.20
2018-01-24T08:53:14.086Z,2.20
2018-01-24T08:55:42.640Z,1.70
2018-01-24T08:58:11.001Z,2.20
2018-01-24T09:00:39.374Z,2.10
2018-01-24T09:03:08.526Z,1.90
2018-01-24T09:05:36.906Z,3.10
2018-01-24T09:08:05.661Z,1.43
2018-01-24T09:10:34.028Z,2.73
2018-01-24T09:13:02.394Z,2.27
2018-01-24T09:15:31.545Z,3.37
2018-01-24T09:17:59.933Z,3.07
2018-01-24T09:20:28.577Z,3.20
2018-01-24T09:22:56.960Z,2.77
2018-01-24T09:25:25.341Z,2.23
2018-01-24T09:27:53.719Z,1.90
2018-01-24T09:30:22.098Z,2.10
2018-01-24T09:32:50.885Z,1.80
2018-01-24T09:35:19.255Z,2.30
2018-01-24T09:37:47.632Z,2.47
2018-01-24T09:40:16.026Z,1.80
2018-01-24T09:42:44.385Z,2.10
2018-01-24T09:45:12.856Z,1.60
2018-01-24T09:47:41.227Z,1.40
2018-01-24T09:50:10.362Z,1.53
2018-01-24T09:52:38.745Z,1.87
2018-01-24T09:55:07.107Z,1.50
2018-01-24T09:57:35.518Z,2.63
2018-01-24T10:00:03.886Z,3.70
2018-01-24T10:02:32.295Z,2.10
2018-01-24T10:05:01.052Z,1.83
2018-01-24T10:07:30.334Z,1.60
2018-01-24T10:09:58.769Z,1.10
2018-01-24T10:12:27.900Z,2.03
2018-01-24T10:14:56.282Z,5.10
2018-01-24T10:17:24.685Z,1.90
2018-01-24T10:19:53.089Z,1.80
2018-01-24T10:22:23.245Z,1.33
2018-01-24T10:24:51.622Z,1.40
2018-01-24T10:27:19.994Z,1.80
2018-01-24T10:29:49.161Z,1.20
2018-01-24T10:32:17.533Z,1.40
2018-01-24T10:34:46.173Z,1.00
2018-01-24T10:37:14.562Z,1.47
2018-01-24T10:39:42.954Z,1.60
2018-01-24T10:42:11.476Z,1.53
2018-01-24T10:44:39.822Z,1.90
2018-01-24T10:47:08.653Z,2.53
2018-01-24T10:49:37.005Z,2.70
2018-01-24T10:52:05.444Z,1.63
2018-01-24T10:54:33.841Z,1.30
2018-01-24T10:57:02.213Z,1.50
2018-01-24T10:59:30.787Z,1.13
2018-01-24T11:01:59.157Z,1.30
2018-01-24T11:04:27.521Z,1.27
2018-01-24T11:06:55.909Z,1.40
2018-01-24T11:09:24.278Z,1.27
2018-01-24T11:11:53.076Z,2.07
2018-01-24T11:14:24.734Z,1.40
2018-01-24T11:16:53.375Z,1.47
2018-01-24T11:19:21.724Z,1.53
2018-01-24T11:21:50.106Z,1.50
2018-01-24T11:24:18.546Z,1.40
2018-01-24T11:26:46.916Z,1.80
2018-01-24T11:29:15.358Z,6.47
2018-01-24T11:31:44.627Z,1.77
2018-01-24T11:34:12.998Z,3.00
2018-01-24T11:36:41.458Z,3.13
2018-01-24T11:39:09.829Z,2.23
2018-01-24T11:41:38.545Z,2.27
2018-01-24T11:44:06.919Z,1.93
2018-01-24T11:46:35.295Z,1.70
2018-01-24T11:49:03.697Z,1.00
2018-01-24T11:51:32.061Z,0.93
2018-01-24T11:54:00.467Z,1.10
2018-01-24T11:56:29.638Z,1.10
2018-01-24T11:58:58.005Z,1.47
2018-01-24T12:01:26.473Z,1.17
2018-01-24T12:03:55.490Z,1.30
2018-01-24T12:06:23.931Z,1.33
2018-01-24T12:08:53.067Z,1.20
2018-01-24T12:11:21.438Z,1.20
2018-01-24T12:13:49.825Z,1.57
2018-01-24T12:16:18.185Z,1.30
2018-01-24T12:18:46.616Z,1.17
2018-01-24T12:21:15.016Z,2.00
2018-01-24T12:23:44.151Z,1.30
2018-01-24T12:26:12.544Z,0.93
2018-01-24T12:28:40.913Z,1.40
2018-01-24T12:31:09.321Z,1.57
2018-01-24T12:33:38.463Z,1.20
2018-01-24T12:36:06.821Z,0.60
2018-01-24T12:38:35.992Z,0.70
2018-01-24T12:41:04.372Z,0.93
2018-01-24T12:43:34.445Z,0.80
2018-01-24T12:46:02.814Z,0.70
2018-01-24T12:48:31.204Z,0.70
2018-01-24T12:50:59.593Z,0.60
2018-01-24T12:53:27.957Z,0.80
2018-01-24T12:55:56.649Z,1.10
2018-01-24T12:58:25.018Z,1.10
2018-01-24T13:00:53.412Z,0.60
2018-01-24T13:03:21.802Z,0.77
2018-01-24T13:05:50.166Z,1.20
2018-01-24T13:08:18.742Z,0.83
2018-01-24T13:10:47.119Z,0.97
2018-01-24T13:13:15.584Z,1.30
2018-01-24T13:15:44.455Z,0.93
2018-01-24T13:18:13.597Z,1.10
2018-01-24T13:20:41.994Z,1.00
2018-01-24T13:23:10.370Z,1.10
2018-01-24T13:25:38.730Z,0.83
2018-01-24T13:28:07.111Z,1.40
2018-01-24T13:30:35.484Z,1.30
2018-01-24T13:33:04.175Z,1.60
2018-01-24T13:35:32.543Z,1.40
2018-01-24T13:38:00.914Z,9.87
2018-01-24T13:40:29.301Z,1.93
2018-01-24T13:42:57.668Z,1.47
2018-01-24T13:45:26.476Z,1.43
2018-01-24T13:47:54.838Z,1.93
2018-01-24T13:50:23.205Z,1.83
2018-01-24T13:52:51.605Z,3.33
2018-01-24T13:55:19.990Z,1.83
2018-01-24T13:57:48.556Z,1.70
2018-01-24T14:00:16.920Z,1.70
2018-01-24T14:02:45.286Z,1.60
2018-01-24T14:05:14.441Z,0.80
2018-01-24T14:07:42.821Z,2.20
2018-01-24T14:10:11.588Z,1.37
2018-01-24T14:12:39.986Z,2.53
2018-01-24T14:15:08.368Z,2.17
2018-01-24T14:17:36.774Z,1.70
2018-01-24T14:20:05.971Z,1.20
2018-01-24T14:22:34.633Z,2.27
2018-01-24T14:25:03.013Z,1.70
2018-01-24T14:27:31.406Z,2.13
2018-01-24T14:30:00.574Z,2.25
2018-01-24T14:32:28.952Z,2.20
2018-01-24T14:34:57.734Z,1.58
2018-01-24T14:37:26.098Z,2.45
2018-01-24T14:39:54.452Z,2.40
2018-01-24T14:42:22.840Z,2.58
2018-01-24T14:44:51.216Z,2.17
2018-01-24T14:47:19.917Z,2.85
2018-01-24T14:49:48.279Z,2.47
2018-01-24T14:52:16.642Z,2.50
2018-01-24T14:54:45.822Z,2.05
2018-01-24T14:57:14.193Z,2.65
2018-01-24T14:59:42.626Z,2.60
2018-01-24T15:02:10.989Z,2.28
2018-01-24T15:04:39.353Z,2.47
2018-01-24T15:07:08.521Z,1.62
2018-01-24T15:09:36.889Z,2.70
2018-01-24T15:12:05.290Z,2.72
2018-01-24T15:14:33.665Z,4.05
2018-01-24T15:17:02.845Z,2.87
2018-01-24T15:19:31.234Z,2.10
2018-01-24T15:21:59.610Z,2.72
2018-01-24T15:24:28.048Z,2.45
2018-01-24T15:26:56.411Z,2.58
2018-01-24T15:29:24.776Z,1.95
2018-01-24T15:31:53.930Z,2.45
2018-01-24T15:34:22.312Z,2.20
2018-01-24T15:36:51.537Z,1.62
2018-01-24T15:39:20.665Z,1.90
2018-01-24T15:41:49.036Z,1.70
2018-01-24T15:44:17.543Z,2.05
2018-01-24T15:46:45.922Z,1.60
2018-01-24T15:49:15.243Z,1.85
2018-01-24T15:51:43.634Z,1.80
2018-01-24T15:54:13.558Z,2.90
2018-01-24T15:56:41.947Z,2.10
2018-01-24T15:59:11.093Z,2.25
2018-01-24T16:01:39.512Z,2.75
2018-01-24T16:04:07.884Z,1.80
2018-01-24T16:06:36.280Z,2.42
2018-01-24T16:09:05.468Z,2.30
2018-01-24T16:11:33.854Z,2.20
2018-01-24T16:14:03.049Z,2.37
2018-01-24T16:16:31.436Z,2.40
2018-01-24T16:19:00.573Z,2.35
2018-01-24T16:21:28.951Z,3.55
2018-01-24T16:23:57.338Z,3.97
2018-01-24T16:26:26.118Z,3.00
2018-01-24T16:28:54.525Z,2.40
2018-01-24T16:31:23.289Z,2.28
2018-01-24T16:33:51.805Z,4.15
2018-01-24T16:36:20.185Z,2.42
2018-01-24T16:38:49.480Z,2.20
2018-01-24T16:41:17.865Z,2.15
2018-01-24T16:43:46.302Z,2.60
2018-01-24T16:46:14.789Z,1.75
2018-01-24T16:48:43.574Z,2.75
2018-01-24T16:51:12.102Z,2.17
2018-01-24T16:53:40.516Z,1.80
2018-01-24T16:56:08.893Z,2.60
2018-01-24T16:58:37.326Z,5.18
2018-01-24T17:01:05.876Z,4.05
2018-01-24T17:03:34.671Z,4.65
2018-01-24T17:06:03.280Z,2.60
2018-01-24T17:08:32.033Z,3.45
2018-01-24T17:11:02.563Z,2.58
2018-01-24T17:13:32.630Z,2.53
2018-01-24T17:16:01.366Z,2.40
2018-01-24T17:18:32.058Z,2.65
2018-01-24T17:21:00.774Z,2.45
2018-01-24T17:23:29.136Z,2.95
2018-01-24T17:25:57.508Z,3.55
2018-01-24T17:28:25.905Z,2.58
2018-01-24T17:30:54.261Z,2.65
2018-01-24T17:33:22.666Z,3.12
2018-01-24T17:35:51.040Z,2.58
2018-01-24T17:38:19.409Z,2.35
2018-01-24T17:40:48.629Z,3.40
2018-01-24T17:43:17.097Z,2.25
2018-01-24T17:45:45.518Z,2.80
2018-01-24T17:48:14.853Z,2.40
2018-01-24T17:50:44.011Z,2.83
2018-01-24T17:53:12.434Z,2.75
2018-01-24T17:55:42.248Z,2.42
2018-01-24T17:58:11.760Z,3.70
2018-01-24T18:00:40.300Z,2.97
2018-01-24T18:03:08.717Z,4.53
2018-01-24T18:05:38.251Z,4.20
2018-01-24T18:08:06.669Z,2.60
2018-01-24T18:10:35.928Z,3.15
2018-01-24T18:13:04.337Z,3.75
2018-01-24T18:15:32.708Z,3.60
2018-01-24T18:18:01.136Z,3.60
2018-01-24T18:20:29.556Z,4.55
2018-01-24T18:22:58.016Z,3.65
2018-01-24T18:25:26.907Z,3.40
2018-01-24T18:27:55.804Z,5.45
2018-01-24T18:30:24.431Z,5.43
2018-01-24T18:32:52.804Z,3.67
2018-01-24T18:35:21.486Z,4.70
2018-01-24T18:37:50.436Z,4.68
2018-01-24T18:40:20.212Z,4.25
2018-01-24T18:42:49.557Z,3.95
2018-01-24T18:45:19.753Z,4.00
2018-01-24T18:47:48.201Z,4.50
2018-01-24T18:50:17.519Z,4.72
2018-01-24T18:52:46.959Z,7.87
2018-01-24T18:55:15.815Z,7.93
2018-01-24T18:57:45.647Z,5.00
2018-01-24T19:00:14.827Z,13.70
2018-01-24T19:02:43.561Z,14.00
2018-01-24T19:05:13.634Z,12.93
2018-01-24T19:07:42.645Z,23.62
2018-01-24T19:10:12.049Z,28.83
2018-01-24T19:12:41.872Z,21.05
2018-01-24T19:15:10.955Z,7.47
2018-01-24T19:17:41.100Z,5.70
2018-01-24T19:20:11.219Z,5.68
2018-01-24T19:22:40.469Z,5.37
2018-01-24T19:25:09.509Z,5.87
2018-01-24T19:27:39.553Z,6.20
2018-01-24T19:30:10.035Z,5.12
2018-01-24T19:32:39.648Z,5.60
2018-01-24T19:35:08.687Z,6.62
2018-01-24T19:37:38.837Z,7.00
2018-01-24T19:40:07.829Z,9.43
2018-01-24T19:42:37.660Z,7.78
2018-01-24T19:45:06.250Z,5.97
2018-01-24T19:47:35.042Z,5.55
2018-01-24T19:50:04.682Z,5.95
2018-01-24T19:52:33.688Z,5.62
2018-01-24T19:55:02.733Z,8.25
2018-01-24T19:57:31.559Z,6.30
2018-01-24T20:00:00.473Z,11.00
2018-01-24T20:02:31.067Z,7.10
2018-01-24T20:05:00.854Z,9.65
2018-01-24T20:07:29.764Z,8.02
2018-01-24T20:09:59.551Z,7.62
2018-01-24T20:12:29.367Z,7.03
2018-01-24T20:14:58.693Z,7.07
2018-01-24T20:17:29.619Z,7.43
2018-01-24T20:20:00.811Z,9.77
2018-01-24T20:22:30.557Z,9.13
2018-01-24T20:25:00.152Z,8.27
2018-01-24T20:27:29.673Z,28.73
2018-01-24T20:29:59.915Z,25.10
2018-01-24T20:32:30.015Z,13.40
2018-01-24T20:34:59.552Z,9.88
2018-01-24T20:37:29.282Z,7.68
2018-01-24T20:39:58.542Z,7.93
2018-01-24T20:42:28.926Z,6.40
2018-01-24T20:44:57.742Z,6.32
2018-01-24T20:47:27.998Z,6.43
2018-01-24T20:49:57.743Z,6.22
2018-01-24T20:52:26.973Z,6.68
2018-01-24T20:54:56.036Z,7.12
2018-01-24T20:57:24.655Z,7.12
2018-01-24T20:59:53.537Z,13.45
2018-01-24T21:02:22.266Z,15.85
2018-01-24T21:04:51.323Z,30.62
2018-01-24T21:07:20.229Z,7.85
2018-01-24T21:09:48.714Z,11.30
2018-01-24T21:12:18.026Z,10.95
2018-01-24T21:14:48.471Z,12.65
2018-01-24T21:17:17.766Z,15.40
2018-01-24T21:19:46.674Z,11.12
2018-01-24T21:22:16.303Z,11.32
2018-01-24T21:24:45.955Z,9.95
2018-01-24T21:27:16.402Z,8.98
2018-01-24T21:30:05.839Z,9.95
2018-01-24T21:32:53.201Z,12.23
2018-01-24T21:35:39.709Z,11.00
2018-01-24T21:38:08.649Z,11.12
2018-01-24T21:40:37.488Z,12.55
2018-01-24T21:43:06.671Z,11.27
2018-01-24T21:45:35.995Z,11.30
2018-01-24T21:48:04.373Z,10.82
2018-01-24T21:50:34.950Z,11.85
2018-01-24T21:53:04.751Z,10.60
2018-01-24T21:55:33.166Z,9.63
2018-01-24T21:58:01.703Z,10.93
2018-01-24T22:00:30.426Z,10.93
2018-01-24T22:02:58.793Z,10.63
2018-01-24T22:05:27.226Z,10.00
2018-01-24T22:07:55.883Z,10.65
2018-01-24T22:10:24.272Z,9.93
2018-01-24T22:12:53.625Z,10.90
2018-01-24T22:15:22.014Z,11.12
2018-01-24T22:17:50.484Z,10.07
2018-01-24T22:20:18.875Z,11.98
2018-01-24T22:22:47.252Z,12.13
2018-01-24T22:25:15.657Z,11.52
2018-01-24T22:27:44.042Z,11.15
2018-01-24T22:30:13.773Z,12.23
2018-01-24T22:32:42.592Z,11.98
2018-01-24T22:35:11.061Z,10.55
2018-01-24T22:37:39.421Z,12.05
2018-01-24T22:40:07.789Z,13.02
2018-01-24T22:42:37.602Z,10.70
2018-01-24T22:45:05.992Z,10.30
2018-01-24T22:47:34.390Z,9.50
2018-01-24T22:50:03.214Z,9.13
2018-01-24T22:52:31.761Z,8.23
2018-01-24T22:55:00.118Z,8.68
2018-01-24T22:57:28.478Z,8.60
2018-01-24T22:59:57.634Z,7.72
2018-01-24T23:02:26.001Z,9.57
2018-01-24T23:04:54.393Z,8.52
2018-01-24T23:07:22.776Z,7.43
2018-01-24T23:09:51.196Z,7.37
2018-01-24T23:12:20.332Z,8.13
2018-01-24T23:14:48.688Z,8.13
2018-01-24T23:17:17.073Z,7.85
2018-01-24T23:19:45.429Z,6.95
2018-01-24T23:22:14.585Z,8.40
2018-01-24T23:24:42.949Z,8.80
2018-01-24T23:27:11.472Z,8.23
2018-01-24T23:29:40.596Z,7.75
2018-01-24T23:32:08.956Z,7.90
2018-01-24T23:34:38.128Z,9.35
2018-01-24T23:37:06.502Z,13.05
2018-01-24T23:39:34.917Z,9.07
2018-01-24T23:42:03.276Z,8.80
2018-01-24T23:44:34.726Z,8.60
2018-01-24T23:47:03.857Z,7.05
2018-01-24T23:49:32.238Z,7.87
2018-01-24T23:52:00.705Z,7.65
2018-01-24T23:54:29.069Z,6.62
2018-01-24T23:56:58.216Z,6.78
2018-01-24T23:59:26.733Z,6.15
